sensor_id;sensor_type;location;lat;lon;timestamp;P1;durP1;ratioP1;P2;durP2;ratioP2
17773;SDS011;9011;33.236;-97.118;2023-07-29T00:01:36;6.13;;;5.30;;
17773;SDS011;9011;33.236;-97.118;2023-07-29T00:04:06;7.38;;;5.60;;
17773;SDS011;9011;33.236;-97.118;2023-07-29T00:06:36;7.07;;;5.82;;
17773;SDS011;9011;33.236;-97.118;2023-07-29T00:09:05;7.10;;;5.50;;
17773;SDS011;9011;33.236;-97.118;2023-07-29T00:11:33;7.43;;;5.75;;
17773;SDS011;9011;33.236;-97.118;2023-07-29T00:14:02;7.22;;;5.93;;
17773;SDS011;9011;33.236;-97.118;2023-07-29T00:16:30;8.73;;;5.82;;
17773;SDS011;9011;33.236;-97.118;2023-07-29T00:18:59;6.20;;;5.28;;
17773;SDS011;9011;33.236;-97.118;2023-07-29T00:21:29;7.88;;;6.10;;
17773;SDS011;9011;33.236;-97.118;2023-07-29T00:24:00;9.45;;;5.70;;
17773;SDS011;9011;33.236;-97.118;2023-07-29T00:26:28;7.45;;;6.22;;
17773;SDS011;9011;33.236;-97.118;2023-07-29T00:28:57;6.45;;;5.85;;
17773;SDS011;9011;33.236;-97.118;2023-07-29T00:31:26;8.13;;;5.90;;
17773;SDS011;9011;33.236;-97.118;2023-07-29T00:33:54;8.63;;;5.95;;
17773;SDS011;9011;33.236;-97.118;2023-07-29T00:36:23;8.65;;;6.13;;
17773;SDS011;9011;33.236;-97.118;2023-07-29T00:38:52;8.65;;;6.28;;
17773;SDS011;9011;33.236;-97.118;2023-07-29T00:41:24;8.55;;;6.10;;
17773;SDS011;9011;33.236;-97.118;2023-07-29T00:43:53;7.70;;;5.88;;
17773;SDS011;9011;33.236;-97.118;2023-07-29T00:46:21;8.20;;;6.32;;
17773;SDS011;9011;33.236;-97.118;2023-07-29T00:48:50;10.23;;;6.57;;
17773;SDS011;9011;33.236;-97.118;2023-07-29T00:51:19;8.27;;;6.38;;
17773;SDS011;9011;33.236;-97.118;2023-07-29T00:53:47;8.85;;;5.85;;
17773;SDS011;9011;33.236;-97.118;2023-07-29T00:56:16;10.93;;;6.47;;
17773;SDS011;9011;33.236;-97.118;2023-07-29T00:58:46;8.73;;;6.47;;
17773;SDS011;9011;33.236;-97.118;2023-07-29T01:01:15;10.45;;;6.25;;
17773;SDS011;9011;33.236;-97.118;2023-07-29T01:03:43;8.40;;;6.07;;
17773;SDS011;9011;33.236;-97.118;2023-07-29T01:06:13;7.93;;;6.53;;
17773;SDS011;9011;33.236;-97.118;2023-07-29T01:08:47;7.70;;;6.90;;
17773;SDS011;9011;33.236;-97.118;2023-07-29T01:11:27;9.52;;;6.32;;
17773;SDS011;9011;33.236;-97.118;2023-07-29T01:14:05;6.82;;;6.10;;
17773;SDS011;9011;33.236;-97.118;2023-07-29T01:16:43;8.50;;;6.25;;
17773;SDS011;9011;33.236;-97.118;2023-07-29T01:19:16;7.75;;;6.95;;
17773;SDS011;9011;33.236;-97.118;2023-07-29T01:21:55;7.47;;;6.47;;
17773;SDS011;9011;33.236;-97.118;2023-07-29T01:24:26;11.65;;;7.72;;
17773;SDS011;9011;33.236;-97.118;2023-07-29T01:26:54;8.40;;;7.10;;
17773;SDS011;9011;33.236;-97.118;2023-07-29T01:29:23;11.45;;;7.88;;
17773;SDS011;9011;33.236;-97.118;2023-07-29T01:31:52;10.50;;;7.47;;
17773;SDS011;9011;33.236;-97.118;2023-07-29T01:34:24;10.35;;;6.88;;
17773;SDS011;9011;33.236;-97.118;2023-07-29T01:36:57;10.10;;;7.00;;
17773;SDS011;9011;33.236;-97.118;2023-07-29T01:39:32;9.45;;;7.40;;
17773;SDS011;9011;33.236;-97.118;2023-07-29T01:42:02;9.00;;;7.60;;
17773;SDS011;9011;33.236;-97.118;2023-07-29T01:44:31;9.23;;;7.65;;
17773;SDS011;9011;33.236;-97.118;2023-07-29T01:47:00;9.50;;;7.68;;
17773;SDS011;9011;33.236;-97.118;2023-07-29T01:49:29;12.18;;;8.50;;
17773;SDS011;9011;33.236;-97.118;2023-07-29T01:51:57;8.77;;;7.93;;
17773;SDS011;9011;33.236;-97.118;2023-07-29T01:54:26;10.15;;;7.75;;
17773;SDS011;9011;33.236;-97.118;2023-07-29T01:56:57;12.63;;;8.20;;
17773;SDS011;9011;33.236;-97.118;2023-07-29T01:59:25;9.85;;;7.38;;
17773;SDS011;9011;33.236;-97.118;2023-07-29T02:01:57;10.30;;;7.72;;
17773;SDS011;9011;33.236;-97.118;2023-07-29T02:04:26;11.45;;;8.57;;
17773;SDS011;9011;33.236;-97.118;2023-07-29T02:06:54;10.82;;;8.75;;
17773;SDS011;9011;33.236;-97.118;2023-07-29T02:09:29;8.30;;;7.53;;
17773;SDS011;9011;33.236;-97.118;2023-07-29T02:11:59;8.57;;;7.68;;
17773;SDS011;9011;33.236;-97.118;2023-07-29T02:14:28;9.90;;;8.30;;
17773;SDS011;9011;33.236;-97.118;2023-07-29T02:16:57;8.82;;;7.95;;
17773;SDS011;9011;33.236;-97.118;2023-07-29T02:19:25;9.63;;;7.72;;
17773;SDS011;9011;33.236;-97.118;2023-07-29T02:21:54;11.38;;;8.13;;
17773;SDS011;9011;33.236;-97.118;2023-07-29T02:24:26;10.55;;;7.85;;
17773;SDS011;9011;33.236;-97.118;2023-07-29T02:26:58;8.80;;;7.90;;
17773;SDS011;9011;33.236;-97.118;2023-07-29T02:29:28;10.85;;;7.97;;
17773;SDS011;9011;33.236;-97.118;2023-07-29T02:31:58;11.95;;;7.18;;
17773;SDS011;9011;33.236;-97.118;2023-07-29T02:34:27;8.35;;;7.43;;
17773;SDS011;9011;33.236;-97.118;2023-07-29T02:36:59;10.70;;;8.00;;
17773;SDS011;9011;33.236;-97.118;2023-07-29T02:39:27;11.27;;;7.70;;
17773;SDS011;9011;33.236;-97.118;2023-07-29T02:41:56;12.02;;;8.07;;
17773;SDS011;9011;33.236;-97.118;2023-07-29T02:44:28;10.52;;;7.82;;
17773;SDS011;9011;33.236;-97.118;2023-07-29T02:47:04;9.00;;;7.47;;
17773;SDS011;9011;33.236;-97.118;2023-07-29T02:49:33;8.07;;;7.28;;
17773;SDS011;9011;33.236;-97.118;2023-07-29T02:52:02;10.98;;;8.15;;
17773;SDS011;9011;33.236;-97.118;2023-07-29T02:54:34;9.98;;;7.88;;
17773;SDS011;9011;33.236;-97.118;2023-07-29T02:57:04;10.93;;;7.82;;
17773;SDS011;9011;33.236;-97.118;2023-07-29T02:59:35;8.80;;;7.95;;
17773;SDS011;9011;33.236;-97.118;2023-07-29T03:02:03;11.15;;;7.75;;
17773;SDS011;9011;33.236;-97.118;2023-07-29T03:04:32;9.68;;;8.35;;
17773;SDS011;9011;33.236;-97.118;2023-07-29T03:07:07;9.88;;;7.57;;
17773;SDS011;9011;33.236;-97.118;2023-07-29T03:09:46;9.45;;;7.18;;
17773;SDS011;9011;33.236;-97.118;2023-07-29T03:12:14;10.32;;;7.88;;
17773;SDS011;9011;33.236;-97.118;2023-07-29T03:14:45;8.60;;;7.68;;
17773;SDS011;9011;33.236;-97.118;2023-07-29T03:17:15;10.05;;;7.85;;
17773;SDS011;9011;33.236;-97.118;2023-07-29T03:19:44;11.65;;;8.20;;
17773;SDS011;9011;33.236;-97.118;2023-07-29T03:22:13;10.00;;;7.40;;
17773;SDS011;9011;33.236;-97.118;2023-07-29T03:24:41;11.35;;;8.20;;
17773;SDS011;9011;33.236;-97.118;2023-07-29T03:27:10;11.52;;;7.90;;
17773;SDS011;9011;33.236;-97.118;2023-07-29T03:29:40;8.70;;;7.38;;
17773;SDS011;9011;33.236;-97.118;2023-07-29T03:32:11;11.15;;;7.75;;
17773;SDS011;9011;33.236;-97.118;2023-07-29T03:34:40;9.57;;;7.95;;
17773;SDS011;9011;33.236;-97.118;2023-07-29T03:37:08;10.38;;;8.45;;
17773;SDS011;9011;33.236;-97.118;2023-07-29T03:39:37;8.77;;;7.53;;
17773;SDS011;9011;33.236;-97.118;2023-07-29T03:42:05;10.15;;;7.28;;
17773;SDS011;9011;33.236;-97.118;2023-07-29T03:44:34;9.85;;;8.40;;
17773;SDS011;9011;33.236;-97.118;2023-07-29T03:47:05;9.75;;;8.20;;
17773;SDS011;9011;33.236;-97.118;2023-07-29T03:49:35;10.98;;;8.02;;
17773;SDS011;9011;33.236;-97.118;2023-07-29T03:52:07;9.23;;;8.10;;
17773;SDS011;9011;33.236;-97.118;2023-07-29T03:54:36;10.77;;;7.95;;
17773;SDS011;9011;33.236;-97.118;2023-07-29T03:57:05;11.38;;;8.40;;
17773;SDS011;9011;33.236;-97.118;2023-07-29T03:59:33;9.98;;;8.68;;
17773;SDS011;9011;33.236;-97.118;2023-07-29T04:02:02;10.57;;;8.68;;
17773;SDS011;9011;33.236;-97.118;2023-07-29T04:04:31;11.90;;;8.50;;
17773;SDS011;9011;33.236;-97.118;2023-07-29T04:07:02;11.02;;;7.93;;
17773;SDS011;9011;33.236;-97.118;2023-07-29T04:09:30;9.88;;;7.70;;
17773;SDS011;9011;33.236;-97.118;2023-07-29T04:11:59;10.82;;;8.80;;
17773;SDS011;9011;33.236;-97.118;2023-07-29T04:14:28;9.88;;;8.25;;
17773;SDS011;9011;33.236;-97.118;2023-07-29T04:16:56;9.77;;;8.77;;
17773;SDS011;9011;33.236;-97.118;2023-07-29T04:19:25;9.20;;;8.18;;
17773;SDS011;9011;33.236;-97.118;2023-07-29T04:21:55;11.13;;;8.35;;
17773;SDS011;9011;33.236;-97.118;2023-07-29T04:24:25;9.88;;;8.32;;
17773;SDS011;9011;33.236;-97.118;2023-07-29T04:26:57;10.25;;;8.00;;
17773;SDS011;9011;33.236;-97.118;2023-07-29T04:29:31;11.73;;;8.80;;
17773;SDS011;9011;33.236;-97.118;2023-07-29T04:32:01;10.10;;;8.88;;
17773;SDS011;9011;33.236;-97.118;2023-07-29T04:34:30;11.63;;;8.15;;
17773;SDS011;9011;33.236;-97.118;2023-07-29T04:37:02;10.95;;;8.95;;
17773;SDS011;9011;33.236;-97.118;2023-07-29T04:39:32;12.13;;;8.57;;
17773;SDS011;9011;33.236;-97.118;2023-07-29T04:42:05;9.10;;;8.13;;
17773;SDS011;9011;33.236;-97.118;2023-07-29T04:44:35;9.50;;;8.60;;
17773;SDS011;9011;33.236;-97.118;2023-07-29T04:47:05;8.75;;;7.75;;
17773;SDS011;9011;33.236;-97.118;2023-07-29T04:49:34;12.40;;;8.55;;
17773;SDS011;9011;33.236;-97.118;2023-07-29T04:52:06;15.27;;;8.82;;
17773;SDS011;9011;33.236;-97.118;2023-07-29T04:54:37;15.52;;;8.95;;
17773;SDS011;9011;33.236;-97.118;2023-07-29T04:57:07;18.33;;;9.73;;
17773;SDS011;9011;33.236;-97.118;2023-07-29T04:59:36;16.58;;;9.45;;
17773;SDS011;9011;33.236;-97.118;2023-07-29T05:02:07;15.70;;;9.32;;
17773;SDS011;9011;33.236;-97.118;2023-07-29T05:04:36;13.73;;;8.68;;
17773;SDS011;9011;33.236;-97.118;2023-07-29T05:07:05;14.15;;;9.32;;
17773;SDS011;9011;33.236;-97.118;2023-07-29T05:09:38;17.80;;;8.45;;
17773;SDS011;9011;33.236;-97.118;2023-07-29T05:12:14;12.60;;;8.60;;
17773;SDS011;9011;33.236;-97.118;2023-07-29T05:14:46;17.05;;;10.02;;
17773;SDS011;9011;33.236;-97.118;2023-07-29T05:17:16;22.60;;;10.02;;
17773;SDS011;9011;33.236;-97.118;2023-07-29T05:19:46;12.00;;;8.38;;
17773;SDS011;9011;33.236;-97.118;2023-07-29T05:22:14;10.57;;;9.20;;
17773;SDS011;9011;33.236;-97.118;2023-07-29T05:24:46;10.95;;;8.98;;
17773;SDS011;9011;33.236;-97.118;2023-07-29T05:27:15;9.35;;;8.02;;
17773;SDS011;9011;33.236;-97.118;2023-07-29T05:29:44;9.93;;;8.63;;
17773;SDS011;9011;33.236;-97.118;2023-07-29T05:32:13;12.77;;;9.20;;
17773;SDS011;9011;33.236;-97.118;2023-07-29T05:34:42;11.80;;;8.52;;
17773;SDS011;9011;33.236;-97.118;2023-07-29T05:37:11;11.15;;;9.00;;
17773;SDS011;9011;33.236;-97.118;2023-07-29T05:39:40;11.05;;;8.93;;
17773;SDS011;9011;33.236;-97.118;2023-07-29T05:42:11;14.23;;;9.10;;
17773;SDS011;9011;33.236;-97.118;2023-07-29T05:44:43;12.30;;;8.70;;
17773;SDS011;9011;33.236;-97.118;2023-07-29T05:47:13;9.50;;;8.00;;
17773;SDS011;9011;33.236;-97.118;2023-07-29T05:49:42;11.05;;;8.95;;
17773;SDS011;9011;33.236;-97.118;2023-07-29T05:52:11;9.98;;;8.40;;
17773;SDS011;9011;33.236;-97.118;2023-07-29T05:54:42;11.70;;;9.52;;
17773;SDS011;9011;33.236;-97.118;2023-07-29T05:57:13;11.57;;;8.77;;
17773;SDS011;9011;33.236;-97.118;2023-07-29T05:59:42;11.63;;;10.43;;
17773;SDS011;9011;33.236;-97.118;2023-07-29T06:02:10;10.18;;;9.18;;
17773;SDS011;9011;33.236;-97.118;2023-07-29T06:04:39;12.82;;;8.88;;
17773;SDS011;9011;33.236;-97.118;2023-07-29T06:07:08;10.75;;;8.63;;
17773;SDS011;9011;33.236;-97.118;2023-07-29T06:09:37;9.68;;;8.68;;
17773;SDS011;9011;33.236;-97.118;2023-07-29T06:12:06;13.50;;;9.52;;
17773;SDS011;9011;33.236;-97.118;2023-07-29T06:14:37;10.23;;;8.55;;
17773;SDS011;9011;33.236;-97.118;2023-07-29T06:17:08;10.70;;;8.55;;
17773;SDS011;9011;33.236;-97.118;2023-07-29T06:19:37;10.57;;;9.40;;
17773;SDS011;9011;33.236;-97.118;2023-07-29T06:22:06;14.95;;;9.02;;
17773;SDS011;9011;33.236;-97.118;2023-07-29T06:24:38;13.18;;;9.55;;
17773;SDS011;9011;33.236;-97.118;2023-07-29T06:27:07;11.48;;;8.98;;
17773;SDS011;9011;33.236;-97.118;2023-07-29T06:29:37;13.65;;;9.68;;
17773;SDS011;9011;33.236;-97.118;2023-07-29T06:32:06;10.55;;;8.93;;
17773;SDS011;9011;33.236;-97.118;2023-07-29T06:34:35;10.40;;;9.30;;
17773;SDS011;9011;33.236;-97.118;2023-07-29T06:37:06;13.10;;;9.23;;
17773;SDS011;9011;33.236;-97.118;2023-07-29T06:39:37;10.57;;;8.65;;
17773;SDS011;9011;33.236;-97.118;2023-07-29T06:42:05;12.38;;;9.15;;
17773;SDS011;9011;33.236;-97.118;2023-07-29T06:44:41;12.93;;;9.98;;
17773;SDS011;9011;33.236;-97.118;2023-07-29T06:47:11;11.43;;;9.13;;
17773;SDS011;9011;33.236;-97.118;2023-07-29T06:49:41;10.50;;;9.27;;
17773;SDS011;9011;33.236;-97.118;2023-07-29T06:52:10;10.80;;;9.57;;
17773;SDS011;9011;33.236;-97.118;2023-07-29T06:54:39;11.77;;;9.20;;
17773;SDS011;9011;33.236;-97.118;2023-07-29T06:57:08;12.63;;;8.88;;
17773;SDS011;9011;33.236;-97.118;2023-07-29T06:59:39;11.93;;;9.52;;
17773;SDS011;9011;33.236;-97.118;2023-07-29T07:02:08;17.15;;;9.82;;
17773;SDS011;9011;33.236;-97.118;2023-07-29T07:04:37;12.43;;;8.77;;
17773;SDS011;9011;33.236;-97.118;2023-07-29T07:07:09;10.95;;;9.48;;
17773;SDS011;9011;33.236;-97.118;2023-07-29T07:09:38;11.80;;;9.98;;
17773;SDS011;9011;33.236;-97.118;2023-07-29T07:12:09;11.70;;;9.30;;
17773;SDS011;9011;33.236;-97.118;2023-07-29T07:14:40;10.43;;;9.40;;
17773;SDS011;9011;33.236;-97.118;2023-07-29T07:17:09;9.90;;;8.85;;
17773;SDS011;9011;33.236;-97.118;2023-07-29T07:19:38;11.35;;;10.13;;
17773;SDS011;9011;33.236;-97.118;2023-07-29T07:22:08;12.40;;;9.63;;
17773;SDS011;9011;33.236;-97.118;2023-07-29T07:24:38;10.90;;;9.00;;
17773;SDS011;9011;33.236;-97.118;2023-07-29T07:27:07;12.88;;;9.68;;
17773;SDS011;9011;33.236;-97.118;2023-07-29T07:29:36;11.88;;;10.55;;
17773;SDS011;9011;33.236;-97.118;2023-07-29T07:32:15;11.10;;;9.32;;
17773;SDS011;9011;33.236;-97.118;2023-07-29T07:34:43;10.52;;;9.48;;
17773;SDS011;9011;33.236;-97.118;2023-07-29T07:37:14;11.20;;;9.43;;
17773;SDS011;9011;33.236;-97.118;2023-07-29T07:39:44;13.50;;;9.25;;
17773;SDS011;9011;33.236;-97.118;2023-07-29T07:42:12;14.82;;;10.43;;
17773;SDS011;9011;33.236;-97.118;2023-07-29T07:44:41;10.02;;;8.88;;
17773;SDS011;9011;33.236;-97.118;2023-07-29T07:47:10;10.75;;;9.70;;
17773;SDS011;9011;33.236;-97.118;2023-07-29T07:49:40;10.50;;;9.40;;
17773;SDS011;9011;33.236;-97.118;2023-07-29T07:52:09;10.50;;;9.48;;
17773;SDS011;9011;33.236;-97.118;2023-07-29T07:54:39;11.15;;;10.00;;
17773;SDS011;9011;33.236;-97.118;2023-07-29T07:57:08;10.90;;;9.45;;
17773;SDS011;9011;33.236;-97.118;2023-07-29T07:59:38;12.48;;;10.00;;
17773;SDS011;9011;33.236;-97.118;2023-07-29T08:02:08;14.07;;;10.77;;
17773;SDS011;9011;33.236;-97.118;2023-07-29T08:04:40;13.80;;;9.80;;
17773;SDS011;9011;33.236;-97.118;2023-07-29T08:07:09;13.07;;;9.68;;
17773;SDS011;9011;33.236;-97.118;2023-07-29T08:09:39;16.88;;;10.35;;
17773;SDS011;9011;33.236;-97.118;2023-07-29T08:12:08;16.60;;;10.60;;
17773;SDS011;9011;33.236;-97.118;2023-07-29T08:14:37;10.98;;;9.77;;
17773;SDS011;9011;33.236;-97.118;2023-07-29T08:17:06;14.50;;;9.85;;
17773;SDS011;9011;33.236;-97.118;2023-07-29T08:19:38;12.25;;;10.13;;
17773;SDS011;9011;33.236;-97.118;2023-07-29T08:22:09;15.52;;;10.55;;
17773;SDS011;9011;33.236;-97.118;2023-07-29T08:24:37;12.75;;;10.77;;
17773;SDS011;9011;33.236;-97.118;2023-07-29T08:27:06;11.80;;;9.75;;
17773;SDS011;9011;33.236;-97.118;2023-07-29T08:29:35;11.23;;;10.13;;
17773;SDS011;9011;33.236;-97.118;2023-07-29T08:32:06;12.70;;;10.32;;
17773;SDS011;9011;33.236;-97.118;2023-07-29T08:34:36;14.00;;;9.70;;
17773;SDS011;9011;33.236;-97.118;2023-07-29T08:37:09;11.32;;;10.13;;
17773;SDS011;9011;33.236;-97.118;2023-07-29T08:39:39;13.23;;;10.32;;
17773;SDS011;9011;33.236;-97.118;2023-07-29T08:42:08;14.00;;;11.05;;
17773;SDS011;9011;33.236;-97.118;2023-07-29T08:44:41;13.90;;;11.18;;
17773;SDS011;9011;33.236;-97.118;2023-07-29T08:47:11;14.80;;;10.85;;
17773;SDS011;9011;33.236;-97.118;2023-07-29T08:49:40;13.35;;;11.10;;
17773;SDS011;9011;33.236;-97.118;2023-07-29T08:52:11;14.88;;;11.15;;
17773;SDS011;9011;33.236;-97.118;2023-07-29T08:54:42;12.43;;;10.50;;
17773;SDS011;9011;33.236;-97.118;2023-07-29T08:57:11;16.02;;;10.52;;
17773;SDS011;9011;33.236;-97.118;2023-07-29T08:59:42;13.98;;;10.20;;
17773;SDS011;9011;33.236;-97.118;2023-07-29T09:02:12;12.75;;;10.90;;
17773;SDS011;9011;33.236;-97.118;2023-07-29T09:04:41;12.98;;;10.73;;
17773;SDS011;9011;33.236;-97.118;2023-07-29T09:07:12;14.70;;;10.48;;
17773;SDS011;9011;33.236;-97.118;2023-07-29T09:09:44;12.80;;;10.48;;
17773;SDS011;9011;33.236;-97.118;2023-07-29T09:12:15;13.13;;;10.55;;
17773;SDS011;9011;33.236;-97.118;2023-07-29T09:14:45;12.23;;;10.50;;
17773;SDS011;9011;33.236;-97.118;2023-07-29T09:17:14;13.90;;;10.68;;
17773;SDS011;9011;33.236;-97.118;2023-07-29T09:19:47;13.93;;;11.60;;
17773;SDS011;9011;33.236;-97.118;2023-07-29T09:22:19;13.85;;;10.95;;
17773;SDS011;9011;33.236;-97.118;2023-07-29T09:24:51;13.00;;;11.07;;
17773;SDS011;9011;33.236;-97.118;2023-07-29T09:27:23;12.95;;;11.43;;
17773;SDS011;9011;33.236;-97.118;2023-07-29T09:29:52;12.27;;;11.10;;
17773;SDS011;9011;33.236;-97.118;2023-07-29T09:32:22;12.98;;;11.55;;
17773;SDS011;9011;33.236;-97.118;2023-07-29T09:34:52;11.93;;;10.73;;
17773;SDS011;9011;33.236;-97.118;2023-07-29T09:37:22;13.00;;;11.43;;
17773;SDS011;9011;33.236;-97.118;2023-07-29T09:39:51;14.25;;;11.27;;
17773;SDS011;9011;33.236;-97.118;2023-07-29T09:42:20;13.85;;;11.20;;
17773;SDS011;9011;33.236;-97.118;2023-07-29T09:44:50;14.52;;;11.18;;
17773;SDS011;9011;33.236;-97.118;2023-07-29T09:47:19;13.88;;;10.07;;
17773;SDS011;9011;33.236;-97.118;2023-07-29T09:49:51;16.80;;;11.85;;
17773;SDS011;9011;33.236;-97.118;2023-07-29T09:52:22;12.55;;;10.10;;
17773;SDS011;9011;33.236;-97.118;2023-07-29T09:54:54;12.90;;;10.73;;
17773;SDS011;9011;33.236;-97.118;2023-07-29T09:57:23;17.63;;;10.82;;
17773;SDS011;9011;33.236;-97.118;2023-07-29T09:59:55;12.70;;;10.00;;
17773;SDS011;9011;33.236;-97.118;2023-07-29T10:02:24;12.10;;;9.75;;
17773;SDS011;9011;33.236;-97.118;2023-07-29T10:04:55;11.60;;;8.98;;
17773;SDS011;9011;33.236;-97.118;2023-07-29T10:07:30;14.10;;;9.15;;
17773;SDS011;9011;33.236;-97.118;2023-07-29T10:10:00;12.60;;;8.82;;
17773;SDS011;9011;33.236;-97.118;2023-07-29T10:12:31;11.48;;;9.30;;
17773;SDS011;9011;33.236;-97.118;2023-07-29T10:15:00;13.45;;;8.52;;
17773;SDS011;9011;33.236;-97.118;2023-07-29T10:17:30;14.05;;;9.02;;
17773;SDS011;9011;33.236;-97.118;2023-07-29T10:20:02;10.90;;;8.30;;
17773;SDS011;9011;33.236;-97.118;2023-07-29T10:22:35;11.88;;;8.32;;
17773;SDS011;9011;33.236;-97.118;2023-07-29T10:25:07;13.82;;;7.88;;
17773;SDS011;9011;33.236;-97.118;2023-07-29T10:27:41;12.18;;;7.57;;
17773;SDS011;9011;33.236;-97.118;2023-07-29T10:30:11;13.10;;;7.47;;
17773;SDS011;9011;33.236;-97.118;2023-07-29T10:32:41;10.98;;;7.32;;
17773;SDS011;9011;33.236;-97.118;2023-07-29T10:35:11;15.00;;;7.38;;
17773;SDS011;9011;33.236;-97.118;2023-07-29T10:37:42;16.83;;;7.40;;
17773;SDS011;9011;33.236;-97.118;2023-07-29T10:40:11;12.73;;;7.80;;
17773;SDS011;9011;33.236;-97.118;2023-07-29T10:42:58;14.57;;;7.75;;
17773;SDS011;9011;33.236;-97.118;2023-07-29T10:45:35;13.23;;;7.43;;
17773;SDS011;9011;33.236;-97.118;2023-07-29T10:48:05;10.65;;;6.32;;
17773;SDS011;9011;33.236;-97.118;2023-07-29T10:50:37;14.55;;;7.32;;
17773;SDS011;9011;33.236;-97.118;2023-07-29T10:53:07;14.30;;;6.93;;
17773;SDS011;9011;33.236;-97.118;2023-07-29T10:55:36;12.60;;;6.90;;
17773;SDS011;9011;33.236;-97.118;2023-07-29T10:58:08;14.73;;;7.50;;
17773;SDS011;9011;33.236;-97.118;2023-07-29T11:00:41;13.68;;;7.03;;
17773;SDS011;9011;33.236;-97.118;2023-07-29T11:03:11;15.10;;;7.00;;
17773;SDS011;9011;33.236;-97.118;2023-07-29T11:05:43;11.35;;;6.35;;
17773;SDS011;9011;33.236;-97.118;2023-07-29T11:08:22;12.40;;;6.32;;
17773;SDS011;9011;33.236;-97.118;2023-07-29T11:11:06;14.00;;;6.40;;
17773;SDS011;9011;33.236;-97.118;2023-07-29T11:13:36;10.63;;;6.72;;
17773;SDS011;9011;33.236;-97.118;2023-07-29T11:16:06;10.88;;;6.38;;
17773;SDS011;9011;33.236;-97.118;2023-07-29T11:18:37;15.70;;;6.57;;
17773;SDS011;9011;33.236;-97.118;2023-07-29T11:21:07;13.77;;;7.20;;
17773;SDS011;9011;33.236;-97.118;2023-07-29T11:23:41;12.27;;;6.63;;
17773;SDS011;9011;33.236;-97.118;2023-07-29T11:26:10;14.90;;;6.97;;
17773;SDS011;9011;33.236;-97.118;2023-07-29T11:28:39;24.70;;;7.78;;
17773;SDS011;9011;33.236;-97.118;2023-07-29T11:31:09;16.63;;;6.88;;
17773;SDS011;9011;33.236;-97.118;2023-07-29T11:33:40;15.50;;;6.53;;
17773;SDS011;9011;33.236;-97.118;2023-07-29T11:36:18;14.52;;;7.10;;
17773;SDS011;9011;33.236;-97.118;2023-07-29T11:38:50;14.95;;;6.82;;
17773;SDS011;9011;33.236;-97.118;2023-07-29T11:41:19;13.35;;;6.90;;
17773;SDS011;9011;33.236;-97.118;2023-07-29T11:43:50;16.60;;;7.30;;
17773;SDS011;9011;33.236;-97.118;2023-07-29T11:46:21;17.40;;;7.82;;
17773;SDS011;9011;33.236;-97.118;2023-07-29T11:48:50;12.57;;;6.82;;
17773;SDS011;9011;33.236;-97.118;2023-07-29T11:51:21;18.17;;;7.97;;
17773;SDS011;9011;33.236;-97.118;2023-07-29T11:53:51;17.75;;;8.20;;
17773;SDS011;9011;33.236;-97.118;2023-07-29T11:56:21;13.27;;;7.05;;
17773;SDS011;9011;33.236;-97.118;2023-07-29T11:58:53;25.88;;;8.70;;
17773;SDS011;9011;33.236;-97.118;2023-07-29T12:01:22;33.58;;;9.93;;
17773;SDS011;9011;33.236;-97.118;2023-07-29T12:03:54;26.38;;;9.57;;
17773;SDS011;9011;33.236;-97.118;2023-07-29T12:06:24;21.17;;;9.50;;
17773;SDS011;9011;33.236;-97.118;2023-07-29T12:08:56;20.77;;;8.57;;
17773;SDS011;9011;33.236;-97.118;2023-07-29T12:11:26;18.08;;;8.48;;
17773;SDS011;9011;33.236;-97.118;2023-07-29T12:13:55;20.88;;;8.93;;
17773;SDS011;9011;33.236;-97.118;2023-07-29T12:16:26;17.25;;;8.82;;
17773;SDS011;9011;33.236;-97.118;2023-07-29T12:19:00;19.20;;;8.27;;
17773;SDS011;9011;33.236;-97.118;2023-07-29T12:21:29;16.73;;;8.55;;
17773;SDS011;9011;33.236;-97.118;2023-07-29T12:24:00;16.42;;;7.97;;
17773;SDS011;9011;33.236;-97.118;2023-07-29T12:26:30;19.20;;;7.43;;
17773;SDS011;9011;33.236;-97.118;2023-07-29T12:29:10;12.52;;;8.23;;
17773;SDS011;9011;33.236;-97.118;2023-07-29T12:31:40;15.57;;;8.13;;
17773;SDS011;9011;33.236;-97.118;2023-07-29T12:34:09;18.80;;;8.23;;
17773;SDS011;9011;33.236;-97.118;2023-07-29T12:36:47;18.20;;;7.30;;
17773;SDS011;9011;33.236;-97.118;2023-07-29T12:39:21;13.85;;;7.07;;
17773;SDS011;9011;33.236;-97.118;2023-07-29T12:41:52;14.00;;;8.18;;
17773;SDS011;9011;33.236;-97.118;2023-07-29T12:44:22;20.33;;;8.00;;
17773;SDS011;9011;33.236;-97.118;2023-07-29T12:46:52;20.65;;;9.20;;
17773;SDS011;9011;33.236;-97.118;2023-07-29T12:49:20;17.48;;;9.07;;
17773;SDS011;9011;33.236;-97.118;2023-07-29T12:51:50;20.92;;;8.75;;
17773;SDS011;9011;33.236;-97.118;2023-07-29T12:54:19;21.13;;;8.45;;
17773;SDS011;9011;33.236;-97.118;2023-07-29T12:56:49;21.48;;;8.98;;
17773;SDS011;9011;33.236;-97.118;2023-07-29T12:59:19;18.13;;;8.07;;
17773;SDS011;9011;33.236;-97.118;2023-07-29T13:01:48;18.77;;;7.85;;
17773;SDS011;9011;33.236;-97.118;2023-07-29T13:04:16;16.15;;;7.47;;
17773;SDS011;9011;33.236;-97.118;2023-07-29T13:06:45;16.02;;;6.30;;
17773;SDS011;9011;33.236;-97.118;2023-07-29T13:09:14;14.45;;;5.68;;
17773;SDS011;9011;33.236;-97.118;2023-07-29T13:11:44;20.50;;;6.25;;
17773;SDS011;9011;33.236;-97.118;2023-07-29T13:14:14;13.60;;;5.55;;
17773;SDS011;9011;33.236;-97.118;2023-07-29T13:16:43;13.35;;;5.50;;
17773;SDS011;9011;33.236;-97.118;2023-07-29T13:19:12;12.90;;;4.93;;
17773;SDS011;9011;33.236;-97.118;2023-07-29T13:21:41;14.35;;;5.15;;
17773;SDS011;9011;33.236;-97.118;2023-07-29T13:24:09;16.75;;;6.28;;
17773;SDS011;9011;33.236;-97.118;2023-07-29T13:26:38;18.63;;;5.88;;
17773;SDS011;9011;33.236;-97.118;2023-07-29T13:29:09;14.73;;;5.13;;
17773;SDS011;9011;33.236;-97.118;2023-07-29T13:31:38;22.08;;;5.80;;
17773;SDS011;9011;33.236;-97.118;2023-07-29T13:34:07;14.80;;;5.32;;
17773;SDS011;9011;33.236;-97.118;2023-07-29T13:36:35;19.63;;;6.00;;
17773;SDS011;9011;33.236;-97.118;2023-07-29T13:39:04;15.27;;;5.47;;
17773;SDS011;9011;33.236;-97.118;2023-07-29T13:41:32;24.65;;;6.13;;
17773;SDS011;9011;33.236;-97.118;2023-07-29T13:44:01;18.83;;;5.43;;
17773;SDS011;9011;33.236;-97.118;2023-07-29T13:46:31;16.67;;;5.30;;
17773;SDS011;9011;33.236;-97.118;2023-07-29T13:49:00;17.77;;;5.18;;
17773;SDS011;9011;33.236;-97.118;2023-07-29T13:51:30;12.80;;;5.43;;
17773;SDS011;9011;33.236;-97.118;2023-07-29T13:54:00;18.23;;;6.00;;
17773;SDS011;9011;33.236;-97.118;2023-07-29T13:56:29;15.65;;;5.70;;
17773;SDS011;9011;33.236;-97.118;2023-07-29T13:58:57;17.95;;;4.63;;
17773;SDS011;9011;33.236;-97.118;2023-07-29T14:01:27;15.05;;;5.38;;
17773;SDS011;9011;33.236;-97.118;2023-07-29T14:04:01;19.73;;;5.38;;
17773;SDS011;9011;33.236;-97.118;2023-07-29T14:06:30;13.40;;;5.03;;
17773;SDS011;9011;33.236;-97.118;2023-07-29T14:08:59;12.05;;;4.63;;
17773;SDS011;9011;33.236;-97.118;2023-07-29T14:11:31;15.13;;;5.60;;
17773;SDS011;9011;33.236;-97.118;2023-07-29T14:14:00;13.55;;;5.32;;
17773;SDS011;9011;33.236;-97.118;2023-07-29T14:16:29;17.85;;;5.45;;
17773;SDS011;9011;33.236;-97.118;2023-07-29T14:18:57;16.48;;;5.55;;
17773;SDS011;9011;33.236;-97.118;2023-07-29T14:21:28;12.43;;;4.75;;
17773;SDS011;9011;33.236;-97.118;2023-07-29T14:23:57;21.27;;;4.85;;
17773;SDS011;9011;33.236;-97.118;2023-07-29T14:26:26;15.48;;;5.18;;
17773;SDS011;9011;33.236;-97.118;2023-07-29T14:28:54;12.75;;;4.47;;
17773;SDS011;9011;33.236;-97.118;2023-07-29T14:31:23;18.67;;;4.63;;
17773;SDS011;9011;33.236;-97.118;2023-07-29T14:33:52;19.95;;;5.57;;
17773;SDS011;9011;33.236;-97.118;2023-07-29T14:36:21;19.92;;;5.63;;
17773;SDS011;9011;33.236;-97.118;2023-07-29T14:38:51;19.90;;;5.05;;
17773;SDS011;9011;33.236;-97.118;2023-07-29T14:41:21;14.70;;;4.90;;